ADDS METAR Data INFO
IDs: Format: Raw Decoded Include TAF

Data at: 2146 UTC 15 Dec 2017

KVYS 152135Z AUTO 25010KT 10SM BKN034 OVC065 01/M07 A2993 RMK AO2 T00101070
KVYS 152115Z AUTO 25013G17KT 10SM SCT034 OVC065 01/M07 A2993 RMK AO2 T00101070
KVYS 152055Z AUTO 24014G19KT 10SM SCT034 OVC055 01/M07 A2993 RMK AO2 T00101070
KVYS 152035Z AUTO 25011KT 10SM OVC055 01/M07 A2993 RMK AO2 T00071070
KVYS 152015Z AUTO 24011G16KT 10SM SCT039 OVC055 01/M07 A2993 RMK AO2 T00061071
KVYS 151955Z AUTO 25013KT 10SM BKN039 OVC055 01/M07 A2993 RMK AO2 T00051075
KVYS 151935Z AUTO 26014KT 10SM BKN039 OVC055 00/M07 A2994 RMK AO2 T00031075
KVYS 151915Z AUTO 26016G22KT 10SM BKN039 OVC055 00/M08 A2994 RMK AO2 T00021077
KVYS 151855Z AUTO 26018G25KT 10SM OVC037 00/M08 A2995 RMK AO2 T00001076
KVYS 151835Z AUTO 26014G23KT 10SM BKN036 OVC045 00/M08 A2996 RMK AO2 T00031076
KVYS 151815Z AUTO 26018G23KT 10SM SCT036 OVC045 01/M08 A2996 RMK AO2 T00051078
KVYS 151755Z AUTO 26017G23KT 10SM SCT045 01/M08 A2996 RMK AO2 T00071080 10010 21045
KVYS 151735Z AUTO 26015G19KT 10SM CLR 00/M08 A2997 RMK AO2 T00041082
KVYS 151715Z AUTO 27016G22KT 10SM CLR 00/M08 A2998 RMK AO2 T00001082
KVYS 151655Z AUTO 27018G21KT 10SM CLR 00/M08 A2999 RMK AO2 T10031083
KVYS 151635Z AUTO 27014G19KT 10SM BKN039 M01/M08 A3000 RMK AO2 T10071085
KVYS 151615Z AUTO 28010G15KT 10SM OVC037 M01/M09 A3001 RMK AO2 T10131086
KVYS 151555Z AUTO 30012KT 10SM OVC039 M02/M09 A3001 RMK AO2 T10181090
KVYS 151535Z AUTO 29012G22KT 10SM OVC041 M02/M09 A3000 RMK AO2 T10191090
KVYS 151515Z AUTO 29011G16KT 10SM BKN039 M02/M09 A3000 RMK AO2 T10221087
KVYS 151455Z AUTO 28011G19KT 10SM CLR M03/M08 A3000 RMK AO2 T10291081
KVYS 151435Z AUTO 28013G22KT 10SM SCT039 M04/M08 A3000 RMK AO2 T10381082
KVYS 151415Z AUTO 28011G20KT 10SM BKN039 M04/M08 A2999 RMK AO2 T10401083
KVYS 151355Z AUTO 27014KT 10SM BKN039 M04/M08 A2999 RMK AO2 T10411080
KVYS 151335Z AUTO 27012KT 10SM BKN041 M04/M08 A2999 RMK AO2 T10421081
KVYS 151315Z AUTO 28011KT 10SM BKN041 M04/M09 A2999 RMK AO2 T10411088
KVYS 151255Z AUTO 28011G17KT 10SM BKN036 M04/M09 A2998 RMK AO2 T10371086
KVYS 151235Z AUTO 28012G18KT 10SM BKN034 M03/M08 A2997 RMK AO2 T10351085
KVYS 151215Z AUTO 28013G20KT 10SM BKN027 BKN034 M03/M08 A2997 RMK AO2 T10311082
KVYS 151155Z AUTO 28013G16KT 10SM OVC023 M03/M07 A2997 RMK AO2 T10301074 11030 21057
KVYS 151135Z AUTO 27011KT 10SM OVC023 M03/M07 A2997 RMK AO2 T10321075
KVYS 151115Z AUTO 26008KT 10SM OVC025 M04/M08 A2997 RMK AO2 T10361076
KVYS 151055Z AUTO 25009KT 10SM OVC027 M04/M08 A2997 RMK AO2 T10361078
KVYS 151035Z AUTO 25009KT 10SM BKN027 OVC033 M04/M08 A2998 RMK AO2 T10381080
KVYS 151015Z AUTO 24008KT 10SM OVC029 M04/M08 A2998 RMK AO2 T10401081
KVYS 150955Z AUTO 24009KT 10SM BKN030 OVC035 M04/M08 A2999 RMK AO2 T10401083
KVYS 150935Z AUTO 24010KT 10SM SCT027 BKN037 OVC047 M04/M08 A2999 RMK AO2 T10411084
KVYS 150915Z AUTO 24008KT 10SM BKN027 OVC043 M04/M08 A3000 RMK AO2 T10411085
KVYS 150855Z AUTO 25009KT 10SM SCT025 OVC041 M04/M08 A3000 RMK AO2 T10411084
KVYS 150835Z AUTO 25008KT 10SM SCT024 OVC039 M04/M08 A3000 RMK AO2 T10421084
KVYS 150815Z AUTO 24006KT 10SM OVC039 M04/M08 A3000 RMK AO2 T10441084
KVYS 150755Z AUTO 25007KT 10SM BKN025 OVC041 M05/M08 A3001 RMK AO2 T10471085
KVYS 150735Z AUTO 25008KT 10SM OVC025 M05/M08 A3001 RMK AO2 T10461085
KVYS 150715Z AUTO 24006KT 10SM OVC027 M05/M08 A3002 RMK AO2 T10481084
KVYS 150655Z AUTO 24005KT 10SM OVC027 M05/M09 A3002 RMK AO2 T10511086
KVYS 150635Z AUTO 24003KT 10SM OVC027 M05/M09 A3003 RMK AO2 T10541086
KVYS 150615Z AUTO 23004KT 10SM OVC027 M06/M09 A3003 RMK AO2 T10561090
KVYS 150555Z AUTO 23004KT 10SM BKN027 OVC085 M06/M09 A3004 RMK AO2 T10571090 11057 21083 410351105
KVYS 150535Z AUTO 22004KT 10SM OVC027 M06/M10 A3004 RMK AO2 T10571097
KVYS 150515Z AUTO 22004KT 10SM OVC027 M06/M10 A3005 RMK AO2 T10601100
KVYS 150455Z AUTO 23004KT 10SM OVC027 M06/M10 A3006 RMK AO2 T10601105
KVYS 150435Z AUTO 24004KT 10SM OVC027 M07/M10 A3006 RMK AO2 T10661104
KVYS 150415Z AUTO 22003KT 10SM OVC029 M07/M11 A3007 RMK AO2 T10691111
KVYS 150355Z AUTO 21005KT 10SM OVC029 M07/M12 A3008 RMK AO2 T10751119
KVYS 150335Z AUTO 21003KT 10SM OVC029 M08/M12 A3008 RMK AO2 T10761125
KVYS 150315Z AUTO 23003KT 10SM BKN029 M07/M12 A3008 RMK AO2 T10751125
KVYS 150255Z AUTO 25003KT 10SM BKN029 M08/M13 A3009 RMK AO2 T10781127
KVYS 150235Z AUTO 25003KT 10SM CLR M07/M12 A3009 RMK AO2 T10751125
KVYS 150215Z AUTO 00000KT 10SM CLR M08/M12 A3009 RMK AO2 T10771125
KVYS 150155Z AUTO 00000KT 10SM CLR M08/M13 A3010 RMK AO2 T10771126
KVYS 150130Z AUTO 29003KT 10SM CLR M07/M12 A3010 RMK AO2 T10751124
KVYS 150115Z AUTO 00000KT 10SM CLR M08/M12 A3010 RMK AO2 T10761122
KVYS 150055Z AUTO 29003KT 10SM CLR M08/M13 A3010 RMK AO2 T10811130
KVYS 150035Z AUTO 28003KT 10SM CLR M08/M13 A3010 RMK AO2 T10761126
KVYS 150015Z AUTO 28003KT 10SM CLR M06/M12 A3010 RMK AO2 T10651125
KVYS 142355Z AUTO 29003KT 10SM CLR M07/M12 A3010 RMK AO2 T10671125 11035 21073
KVYS 142335Z AUTO 29004KT 10SM CLR M07/M13 A3010 RMK AO2 T10731126
KVYS 142315Z AUTO 29003KT 10SM CLR M06/M12 A3010 RMK AO2 T10651125
KVYS 142255Z AUTO 29003KT 10SM CLR M05/M12 A3009 RMK AO2 T10551117
KVYS 142235Z AUTO 27003KT 10SM CLR M05/M12 A3009 RMK AO2 T10501116
KVYS 142215Z AUTO 30003KT 10SM CLR M04/M11 A3008 RMK AO2 T10451115
KVYS 142155Z AUTO 32004KT 10SM CLR M04/M12 A3008 RMK AO2 T10391120
KVYS 142135Z AUTO 29004KT 10SM CLR M04/M12 A3008 RMK AO2 T10371120
KVYS 142115Z AUTO 29003KT 10SM CLR M04/M12 A3008 RMK AO2 T10371123
KVYS 142055Z AUTO 27003KT 10SM CLR M04/M12 A3008 RMK AO2 T10361123
KVYS 142035Z AUTO 26004KT 10SM CLR M03/M12 A3007 RMK AO2 T10351122
KVYS 142015Z AUTO 00000KT 10SM CLR M04/M12 A3007 RMK AO2 T10371124
KVYS 141955Z AUTO 00000KT 10SM CLR M04/M12 A3007 RMK AO2 T10391125
KVYS 141935Z AUTO 00000KT 10SM CLR M04/M12 A3007 RMK AO2 T10371123
KVYS 141915Z AUTO 00000KT 10SM CLR M04/M13 A3007 RMK AO2 T10411128
KVYS 141855Z AUTO 35003KT 10SM CLR M04/M13 A3007 RMK AO2 T10411128
KVYS 141835Z AUTO 00000KT 10SM CLR M05/M13 A3007 RMK AO2 T10461133
KVYS 141815Z AUTO 35003KT 10SM CLR M04/M13 A3008 RMK AO2 T10441127
KVYS 141755Z AUTO 01004KT 10SM CLR M05/M13 A3009 RMK AO2 T10491128 11047 21105
KVYS 141735Z AUTO 02005KT 10SM CLR M05/M13 A3010 RMK AO2 T10501128
KVYS 141715Z AUTO 06005KT 10SM CLR M05/M12 A3010 RMK AO2 T10541120
KVYS 141655Z AUTO 01006KT 10SM CLR M06/M12 A3010 RMK AO2 T10561120
KVYS 141630Z AUTO 05005KT 10SM CLR M06/M12 A3011 RMK AO2 T10611119
KVYS 141615Z AUTO 03006KT 10SM CLR M06/M12 A3011 RMK AO2 T10621122
KVYS 141555Z AUTO 04005KT 10SM CLR M06/M12 A3012 RMK AO2 T10631119
KVYS 141535Z AUTO 02007KT 10SM CLR M07/M12 A3011 RMK AO2 T10701118
KVYS 141515Z AUTO 00000KT 10SM CLR M08/M12 A3011 RMK AO2 T10761119
KVYS 141455Z AUTO 36003KT 10SM CLR M08/M12 A3010 RMK AO2 T10821122
KVYS 141435Z AUTO 34004KT 10SM CLR M09/M12 A3009 RMK AO2 T10861124
KVYS 141415Z AUTO 31003KT 10SM CLR M09/M12 A3008 RMK AO2 T10931122
KVYS 141355Z AUTO 00000KT 10SM CLR M10/M13 A3007 RMK AO2 T10991129
KVYS 141335Z AUTO 35006KT 10SM CLR M10/M13 A3006 RMK AO2 T10991130
KVYS 141315Z AUTO 35006KT 10SM CLR M10/M13 A3005 RMK AO2 T10971128
KVYS 141255Z AUTO 35003KT 10SM CLR M09/M12 A3004 RMK AO2 T10941125
KVYS 141235Z AUTO 01005KT 10SM CLR M09/M12 A3003 RMK AO2 T10931125
KVYS 141215Z AUTO 35004KT 10SM CLR M10/M12 A3002 RMK AO2 T10961124
KVYS 141155Z AUTO 34003KT 10SM CLR M10/M12 A3002 RMK AO2 T11001125 11038 21100
KVYS 141135Z AUTO 34005KT 10SM CLR M09/M12 A3001 RMK AO2 T10891121
KVYS 141115Z AUTO 35008KT 10SM CLR M09/M12 A3000 RMK AO2 T10871120
KVYS 141055Z AUTO 33007KT 10SM CLR M08/M12 A3000 RMK AO2 T10841117
KVYS 141035Z AUTO 35008KT 10SM CLR M08/M11 A2999 RMK AO2 T10811114
KVYS 141015Z AUTO 33007KT 10SM CLR M08/M11 A2999 RMK AO2 T10811109
KVYS 140955Z AUTO 35008KT 10SM CLR M07/M11 A2998 RMK AO2 T10751106